Time;durP1;ratioP1;P1;durP2;ratioP2;P2;SDS_P1;SDS_P2;PMS_P1;PMS_P2;Temp;Humidity;BMP_temperature;BMP_pressure;BME280_temperature;BME280_humidity;BME280_pressure;Samples;Min_cycle;Max_cycle;Signal;HPM_P1;HPM_P2
2022/08/23 00:04:58;;;;;;;6.25;2.60;;;;;;;20.49;40.49;99704.53;10341677;28;20060;-60
2022/08/23 00:10:12;;;;;;;6.68;2.90;;;;;;;20.48;41.17;99702.88;10342231;28;20064;-60
2022/08/23 00:15:16;;;;;;;6.22;3.00;;;;;;;20.46;41.31;99704.84;10342649;28;20046;-60
2022/08/23 00:20:19;;;;;;;6.18;2.70;;;;;;;20.28;41.79;99706.75;10342691;28;20052;-60
2022/08/23 00:25:20;;;;;;;6.38;2.78;;;;;;;20.14;42.39;99699.38;10340540;28;20042;-60
2022/08/23 00:30:22;;;;;;;6.90;3.28;;;;;;;20.00;42.71;99713.25;10342405;28;20141;-60
2022/08/23 00:35:24;;;;;;;7.28;2.58;;;;;;;20.01;42.32;99714.94;10341866;28;20050;-60
2022/08/23 00:40:27;;;;;;;8.27;2.60;;;;;;;19.78;42.80;99705.78;10342278;28;20074;-60
2022/08/23 00:52:11;;;;;;;6.57;2.53;;;;;;;19.71;43.26;99716.16;10254124;28;20050;-60
2022/08/23 00:57:18;;;;;;;6.07;3.00;;;;;;;19.65;43.32;99722.09;10342636;28;20569;-61
2022/08/23 01:02:21;;;;;;;5.30;2.75;;;;;;;19.42;43.65;99728.84;10346526;28;20046;-61
2022/08/23 01:07:53;;;;;;;6.65;2.80;;;;;;;19.09;44.23;99722.44;10348173;28;20050;-62
2022/08/23 01:13:17;;;;;;;11.32;3.25;;;;;;;18.89;44.69;99720.03;10349056;28;20105;-61
2022/08/23 01:18:23;;;;;;;7.22;2.72;;;;;;;18.81;44.51;99719.97;10349661;28;20506;-61
2022/08/23 01:23:50;;;;;;;5.70;2.90;;;;;;;18.78;44.72;99721.06;10347783;28;20053;-61
2022/08/23 01:28:53;;;;;;;8.10;2.90;;;;;;;18.87;44.20;99717.50;10347693;28;20053;-61
2022/08/23 01:34:05;;;;;;;6.88;2.40;;;;;;;18.54;45.04;99720.78;10347267;28;20049;-61
2022/08/23 01:39:07;;;;;;;6.35;2.75;;;;;;;18.72;44.47;99721.66;10347562;28;20431;-61
2022/08/23 01:44:09;;;;;;;6.38;2.63;;;;;;;18.29;45.18;99732.88;10346189;28;20546;-61
2022/08/23 01:49:12;;;;;;;7.05;3.00;;;;;;;18.30;45.39;99725.78;10346313;28;20046;-61
2022/08/23 01:54:14;;;;;;;6.65;2.80;;;;;;;18.48;45.13;99724.84;10347100;28;20060;-61
2022/08/23 01:59:16;;;;;;;7.15;2.88;;;;;;;18.52;44.86;99731.50;10346494;28;20056;-61
2022/08/23 02:04:18;;;;;;;5.35;2.70;;;;;;;18.55;44.86;99733.88;10345972;28;20948;-61
2022/08/23 02:09:20;;;;;;;8.07;3.00;;;;;;;18.45;44.91;99741.03;10351651;28;20050;-61
2022/08/23 02:14:21;;;;;;;5.97;2.60;;;;;;;18.38;44.99;99737.28;10353226;28;20042;-61
2022/08/23 02:19:24;;;;;;;4.90;2.55;;;;;;;18.44;45.26;99743.84;10343646;28;20060;-61
2022/08/23 02:24:26;;;;;;;5.97;2.72;;;;;;;18.24;45.37;99751.00;10352473;28;20054;-61
2022/08/23 02:29:29;;;;;;;4.57;2.53;;;;;;;18.08;45.74;99745.44;10350588;28;20773;-61
2022/08/23 02:34:31;;;;;;;6.07;2.70;;;;;;;17.88;45.71;99737.69;10346816;28;20494;-61
2022/08/23 02:39:50;;;;;;;5.13;2.53;;;;;;;17.81;46.07;99751.50;10350851;28;20410;-61
2022/08/23 02:44:52;;;;;;;8.55;3.17;;;;;;;17.60;46.38;99755.28;10349408;28;20066;-61
2022/08/23 02:49:53;;;;;;;7.18;2.88;;;;;;;17.41;46.89;99756.13;10352514;28;20366;-61
2022/08/23 02:54:55;;;;;;;5.28;2.70;;;;;;;17.49;46.94;99756.28;10351679;28;20104;-61
2022/08/23 02:59:58;;;;;;;5.97;2.85;;;;;;;17.31;47.18;99759.72;10347038;28;20458;-61
2022/08/23 03:05:00;;;;;;;7.72;2.97;;;;;;;17.22;47.43;99763.19;10346183;28;20449;-60
2022/08/23 03:10:04;;;;;;;5.60;2.70;;;;;;;17.27;47.50;99760.97;10343078;28;20050;-61
2022/08/23 03:15:07;;;;;;;8.00;2.97;;;;;;;17.33;47.29;99765.69;10342528;28;20049;-60
2022/08/23 03:20:09;;;;;;;5.32;2.78;;;;;;;17.24;47.50;99770.00;10343247;28;20112;-60
2022/08/23 03:25:11;;;;;;;6.95;3.20;;;;;;;17.26;47.48;99768.03;10342129;28;20453;-60
2022/08/23 03:30:16;;;;;;;4.90;2.80;;;;;;;17.15;48.04;99765.53;10343048;28;20108;-61
2022/08/23 03:35:20;;;;;;;5.93;3.00;;;;;;;17.03;48.24;99758.72;10339293;28;20080;-61
2022/08/23 03:40:23;;;;;;;5.63;2.70;;;;;;;16.99;48.22;99762.59;10343455;28;20072;-61
2022/08/23 03:45:24;;;;;;;8.05;2.72;;;;;;;17.08;48.06;99772.34;10337633;28;20148;-61
2022/08/23 03:50:27;;;;;;;5.85;2.90;;;;;;;17.04;48.19;99769.13;10342544;28;20623;-61
2022/08/23 03:55:28;;;;;;;8.48;3.20;;;;;;;17.03;48.36;99777.22;10341681;28;20062;-61
2022/08/23 04:00:33;;;;;;;5.70;3.00;;;;;;;16.77;48.80;99782.13;10344071;28;20046;-60
2022/08/23 04:05:35;;;;;;;6.85;3.05;;;;;;;16.69;49.04;99799.63;10343563;28;20046;-61
2022/08/23 04:10:37;;;;;;;9.50;3.40;;;;;;;16.59;49.43;99793.47;10342220;28;20058;-61
2022/08/23 04:15:40;;;;;;;7.93;3.10;;;;;;;16.41;50.02;99803.78;10342305;28;20060;-61
2022/08/23 04:20:44;;;;;;;5.78;2.97;;;;;;;16.34;49.89;99796.53;10343935;28;20498;-61
2022/08/23 04:25:46;;;;;;;7.80;3.00;;;;;;;16.38;50.18;99803.22;10343652;28;20763;-61
2022/08/23 04:30:49;;;;;;;5.85;3.30;;;;;;;16.37;50.20;99810.28;10344996;28;20054;-60
2022/08/23 04:35:50;;;;;;;6.00;3.00;;;;;;;16.12;50.59;99816.00;10352429;28;20186;-61
2022/08/23 04:46:15;;;;;;;7.32;2.92;;;;;;;15.75;51.40;99831.41;10349918;28;20060;-61
2022/08/23 04:51:16;;;;;;;9.60;3.17;;;;;;;15.86;51.51;99833.97;10350959;28;20166;-60
2022/08/23 04:56:18;;;;;;;7.05;3.20;;;;;;;15.87;51.87;99840.94;10351086;28;20410;-60
2022/08/23 05:01:24;;;;;;;7.88;3.63;;;;;;;15.98;51.89;99843.50;10350976;28;20048;-60
2022/08/23 05:06:27;;;;;;;6.18;3.20;;;;;;;16.30;51.24;99840.81;10349727;28;20338;-61
2022/08/23 05:11:29;;;;;;;5.97;3.13;;;;;;;16.41;51.12;99853.94;10346998;28;20057;-60
2022/08/23 05:16:30;;;;;;;4.78;2.83;;;;;;;16.51;50.86;99859.31;10349237;28;20050;-61
2022/08/23 05:21:32;;;;;;;5.55;2.92;;;;;;;16.73;50.53;99861.78;10350313;28;20091;-60
2022/08/23 05:26:34;;;;;;;9.13;3.22;;;;;;;16.93;49.68;99864.38;10349778;28;20069;-60
2022/08/23 05:31:36;;;;;;;7.28;3.30;;;;;;;17.16;49.20;99864.97;10349798;28;20053;-60
2022/08/23 05:36:37;;;;;;;5.65;3.10;;;;;;;17.29;48.77;99870.88;10350749;28;20217;-60
2022/08/23 05:41:55;;;;;;;6.50;2.90;;;;;;;17.45;48.54;99879.13;10345996;28;20402;-60
2022/08/23 05:46:57;;;;;;;5.55;3.03;;;;;;;17.64;48.36;99881.84;10346602;28;20057;-61
2022/08/23 05:51:59;;;;;;;8.38;3.00;;;;;;;17.80;47.91;99870.69;10347829;28;20490;-61
2022/08/23 05:57:01;;;;;;;5.97;2.80;;;;;;;18.02;47.33;99883.63;10344949;28;20076;-61
2022/08/23 06:02:03;;;;;;;6.38;2.67;;;;;;;18.23;46.88;99886.16;10348518;28;20042;-60
2022/08/23 06:07:05;;;;;;;6.32;2.75;;;;;;;18.43;46.28;99898.41;10349083;28;20049;-61
2022/08/23 06:12:07;;;;;;;5.72;2.70;;;;;;;18.54;46.45;99900.91;10345684;28;20429;-61
2022/08/23 06:17:09;;;;;;;5.90;2.63;;;;;;;18.57;46.40;99901.44;10347938;28;20060;-61
2022/08/23 06:22:11;;;;;;;8.18;2.67;;;;;;;18.85;46.03;99909.47;10345191;28;20053;-61
2022/08/23 06:27:13;;;;;;;5.57;2.78;;;;;;;19.11;45.48;99897.25;10345107;28;20058;-61
2022/08/23 06:32:15;;;;;;;10.20;2.70;;;;;;;19.37;44.74;99899.06;10345014;28;20049;-61
2022/08/23 06:37:16;;;;;;;7.32;2.22;;;;;;;19.65;44.19;99899.00;10341968;28;20053;-61
2022/08/23 06:42:18;;;;;;;5.85;2.20;;;;;;;19.89;42.57;99900.13;10338650;28;20060;-61
2022/08/23 06:47:39;;;;;;;11.40;2.58;;;;;;;20.11;43.08;99893.53;10344448;28;20402;-60
2022/08/23 06:52:40;;;;;;;7.78;2.47;;;;;;;20.23;42.26;99895.78;10344799;28;20054;-60
2022/08/23 06:57:44;;;;;;;7.38;2.22;;;;;;;20.28;42.29;99901.47;10342878;28;20184;-61
2022/08/23 07:02:46;;;;;;;9.02;2.42;;;;;;;20.43;41.74;99904.41;10343468;28;20042;-61
2022/08/23 07:07:50;;;;;;;5.63;2.35;;;;;;;20.48;41.89;99904.78;10343642;28;20135;-61
2022/08/23 07:12:52;;;;;;;6.78;2.60;;;;;;;20.65;40.96;99911.91;10346533;28;20206;-61
2022/08/23 07:17:55;;;;;;;5.70;2.55;;;;;;;20.77;40.41;99915.97;10341988;28;20049;-61
2022/08/23 07:22:57;;;;;;;14.55;2.67;;;;;;;20.92;40.00;99914.41;10346155;28;20053;-60
2022/08/23 07:28:00;;;;;;;11.30;2.58;;;;;;;21.12;39.72;99919.47;10345256;28;20156;-61
2022/08/23 07:33:02;;;;;;;7.65;2.50;;;;;;;21.00;40.15;99917.09;10345995;28;20064;-61
2022/08/23 07:38:07;;;;;;;9.88;2.40;;;;;;;21.27;39.84;99925.88;10345236;28;20064;-60
2022/08/23 07:43:10;;;;;;;8.43;2.40;;;;;;;22.03;38.61;99922.13;10343133;28;20046;-61
2022/08/23 07:48:12;;;;;;;5.53;2.42;;;;;;;22.91;36.99;99920.44;10345373;28;20045;-61
2022/08/23 07:53:18;;;;;;;11.15;2.60;;;;;;;23.76;35.26;99909.75;10343883;28;20065;-61
2022/08/23 07:58:38;;;;;;;7.28;2.22;;;;;;;24.42;34.37;99917.16;10344231;28;20053;-61
2022/08/23 08:03:42;;;;;;;9.40;2.25;;;;;;;25.13;33.39;99916.59;10344491;28;20042;-61
2022/08/23 08:08:44;;;;;;;5.85;2.33;;;;;;;25.47;32.48;99919.56;10344548;28;20045;-61
2022/08/23 08:13:48;;;;;;;11.00;2.70;;;;;;;25.80;31.57;99919.94;10343478;28;20071;-61
2022/08/23 08:18:51;;;;;;;6.05;2.38;;;;;;;25.81;31.33;99921.63;10326903;28;20050;-61
2022/08/23 08:23:53;;;;;;;8.48;2.40;;;;;;;26.46;30.43;99918.75;10343051;28;20046;-61
2022/08/23 08:28:55;;;;;;;8.32;2.60;;;;;;;27.13;29.48;99914.50;10344350;28;20048;-61
2022/08/23 08:33:57;;;;;;;5.10;2.30;;;;;;;27.31;29.09;99911.31;10341952;28;20054;-61
2022/08/23 08:38:58;;;;;;;6.18;2.30;;;;;;;27.72;27.93;99908.56;10341546;28;20397;-61
2022/08/23 08:44:33;;;;;;;8.00;2.25;;;;;;;28.12;27.09;99915.72;10342368;28;20061;-61
2022/08/23 08:49:43;;;;;;;9.63;2.25;;;;;;;28.19;27.77;99911.19;10340576;28;20459;-61
2022/08/23 08:54:49;;;;;;;5.88;2.50;;;;;;;28.43;26.89;99915.16;10342604;28;20073;-61
2022/08/23 09:00:05;;;;;;;7.43;2.40;;;;;;;28.45;27.03;99916.59;10338652;28;20061;-61
2022/08/23 09:05:18;;;;;;;6.72;2.20;;;;;;;28.10;26.88;99907.03;10336419;28;20218;-61
2022/08/23 09:10:29;;;;;;;7.28;2.20;;;;;;;27.95;27.36;99903.72;10340849;28;21024;-61
2022/08/23 09:15:48;;;;;;;7.35;2.30;;;;;;;28.25;26.34;99902.28;10341380;28;20049;-61
2022/08/23 09:20:53;;;;;;;6.30;2.20;;;;;;;28.35;26.74;99894.66;10346936;28;20046;-61
2022/08/23 09:26:00;;;;;;;9.60;2.58;;;;;;;28.21;26.61;99895.66;10350222;28;20046;-61
2022/08/23 09:31:04;;;;;;;5.80;2.28;;;;;;;28.38;26.79;99898.81;10348059;28;20054;-61
2022/08/23 09:36:20;;;;;;;8.50;2.47;;;;;;;28.40;26.48;99896.75;10349467;28;20233;-61
2022/08/23 09:41:31;;;;;;;6.72;2.38;;;;;;;28.74;26.25;99883.88;10348287;28;20064;-61
2022/08/23 09:46:36;;;;;;;6.10;2.40;;;;;;;29.41;25.70;99878.13;10348240;28;20057;-61
2022/08/23 09:51:40;;;;;;;6.10;2.40;;;;;;;29.67;25.51;99879.84;10348823;28;20220;-61
2022/08/23 09:56:55;;;;;;;12.38;2.50;;;;;;;29.30;25.65;99877.94;10346078;28;20054;-61
2022/08/23 10:01:59;;;;;;;7.57;2.70;;;;;;;29.01;26.13;99876.59;10347428;28;20054;-62
2022/08/23 10:07:38;;;;;;;7.30;2.40;;;;;;;29.46;25.35;99872.09;10345146;28;20490;-61
2022/08/23 10:12:44;;;;;;;9.25;2.35;;;;;;;29.35;25.51;99876.25;10347231;28;20093;-61
2022/08/23 10:18:03;;;;;;;6.60;2.40;;;;;;;29.42;25.27;99862.81;10345924;28;20060;-61
2022/08/23 10:23:39;;;;;;;5.43;2.40;;;;;;;29.28;25.07;99866.53;10345745;28;20490;-61
2022/08/23 10:34:40;;;;;;;7.93;2.42;;;;;;;29.21;24.88;99854.97;10341372;28;20049;-62
2022/08/23 10:39:51;;;;;;;6.43;2.40;;;;;;;29.22;25.01;99856.63;10340965;28;20038;-62
2022/08/23 10:45:14;;;;;;;10.75;2.30;;;;;;;29.37;25.05;99846.41;10343667;28;20414;-61
2022/08/23 10:50:19;;;;;;;8.13;2.60;;;;;;;29.32;24.90;99844.34;10343254;28;20513;-61
2022/08/23 10:55:42;;;;;;;8.88;2.50;;;;;;;29.39;24.88;99836.28;10345043;28;20056;-61
2022/08/23 11:00:44;;;;;;;6.95;2.40;;;;;;;29.30;24.64;99834.81;10345079;28;20060;-61
2022/08/23 11:06:24;;;;;;;6.00;2.42;;;;;;;29.17;24.99;99821.44;10344776;28;20054;-61
2022/08/23 11:11:38;;;;;;;7.53;2.30;;;;;;;29.48;24.35;99821.53;10340991;28;20121;-61
2022/08/23 11:16:45;;;;;;;7.93;2.45;;;;;;;29.71;23.87;99824.47;10343710;28;20528;-60
2022/08/23 11:21:47;;;;;;;8.02;2.55;;;;;;;29.54;24.17;99817.97;10342645;28;20558;-61
2022/08/23 11:26:52;;;;;;;6.43;2.38;;;;;;;29.60;23.43;99825.97;10342822;28;20050;-60
2022/08/23 11:32:24;;;;;;;5.80;2.50;;;;;;;29.06;24.09;99823.75;10342036;28;20486;-61
2022/08/23 11:37:54;;;;;;;7.20;2.10;;;;;;;29.40;24.28;99816.38;10342790;28;20050;-61
2022/08/23 11:43:05;;;;;;;8.30;2.40;;;;;;;29.82;23.84;99815.69;10342542;28;20152;-61
2022/08/23 11:48:07;;;;;;;6.32;2.58;;;;;;;29.85;24.08;99812.53;10342972;28;20049;-61
2022/08/23 11:53:31;;;;;;;8.68;2.40;;;;;;;30.00;23.62;99802.31;10339929;28;20058;-61
2022/08/23 11:59:04;;;;;;;6.05;2.50;;;;;;;30.38;23.55;99802.16;10339944;28;20064;-61
2022/08/23 12:04:32;;;;;;;6.60;2.92;;;;;;;30.37;22.50;99800.50;10341304;28;20506;-61
2022/08/23 12:09:35;;;;;;;4.82;2.70;;;;;;;30.42;22.78;99806.06;10340636;28;20049;-61
2022/08/23 12:14:44;;;;;;;7.22;2.47;;;;;;;30.16;22.60;99790.94;10340025;28;20068;-61
2022/08/23 12:20:07;;;;;;;6.32;2.38;;;;;;;30.02;22.84;99797.50;10340644;28;20713;-61
2022/08/23 12:25:20;;;;;;;9.77;2.60;;;;;;;29.89;22.96;99787.63;10341324;28;20136;-61
2022/08/23 12:30:26;;;;;;;6.70;2.75;;;;;;;29.84;23.18;99776.69;10340968;28;20411;-61
2022/08/23 12:35:46;;;;;;;5.10;2.50;;;;;;;30.20;22.91;99784.06;10341006;28;20049;-61
2022/08/23 12:40:51;;;;;;;5.70;2.45;;;;;;;30.85;22.17;99776.31;10341941;28;20064;-61
2022/08/23 12:45:58;;;;;;;6.10;2.63;;;;;;;31.31;21.56;99779.31;10342828;28;20139;-61
2022/08/23 12:51:06;;;;;;;6.30;2.58;;;;;;;31.36;21.14;99774.84;10340186;28;20058;-61
2022/08/23 12:56:21;;;;;;;5.80;2.25;;;;;;;31.51;20.69;99773.63;10349473;28;20058;-61
2022/08/23 13:01:37;;;;;;;10.07;2.50;;;;;;;31.75;20.92;99767.22;10345091;28;20065;-61
2022/08/23 13:06:42;;;;;;;6.10;2.30;;;;;;;31.81;20.38;99767.13;10349073;28;20059;-61
2022/08/23 13:11:45;;;;;;;9.27;2.60;;;;;;;31.54;20.66;99762.38;10345959;28;20042;-61
2022/08/23 13:16:47;;;;;;;4.22;2.10;;;;;;;31.36;21.15;99763.19;10337793;28;20053;-61
2022/08/23 13:22:11;;;;;;;9.25;2.50;;;;;;;31.58;20.78;99756.25;10347638;28;20038;-61
2022/08/23 13:27:20;;;;;;;5.63;2.53;;;;;;;31.80;20.39;99741.09;10345569;28;20050;-61
2022/08/23 13:32:43;;;;;;;7.30;2.30;;;;;;;31.64;20.37;99746.41;10338712;28;20050;-61
2022/08/23 13:37:46;;;;;;;6.10;2.47;;;;;;;32.10;20.13;99743.75;10341118;28;20052;-61
2022/08/23 13:42:56;;;;;;;4.80;2.17;;;;;;;32.22;19.59;99747.28;10343903;28;20147;-61
2022/08/23 13:48:05;;;;;;;6.82;2.25;;;;;;;32.42;18.99;99745.03;10341734;28;20034;-61
2022/08/23 13:53:08;;;;;;;10.30;2.50;;;;;;;32.47;19.55;99741.59;10336438;28;20049;-61
2022/08/23 13:58:51;;;;;;;4.43;2.20;;;;;;;32.69;18.89;99737.22;10341253;28;20658;-61
2022/08/23 14:03:52;;;;;;;7.82;2.50;;;;;;;32.53;19.58;99740.69;10339530;28;20056;-61
2022/08/23 14:08:54;;;;;;;12.07;2.78;;;;;;;32.16;19.39;99743.66;10344626;28;20046;-61
2022/08/23 14:13:56;;;;;;;6.65;2.40;;;;;;;32.03;19.96;99740.34;10333194;28;20477;-61
2022/08/23 14:18:58;;;;;;;7.50;2.03;;;;;;;32.47;19.27;99738.91;10338802;28;20521;-61
2022/08/23 14:24:19;;;;;;;4.90;2.45;;;;;;;32.33;19.16;99738.31;10340638;28;20045;-61
2022/08/23 14:29:23;;;;;;;5.85;2.20;;;;;;;32.42;19.49;99739.59;10343509;28;20461;-61
2022/08/23 14:34:26;;;;;;;5.68;2.40;;;;;;;32.33;19.17;99742.94;10337645;28;20107;-61
2022/08/23 14:39:28;;;;;;;5.40;2.22;;;;;;;32.32;19.08;99735.84;10339031;28;20084;-61
2022/08/23 14:44:30;;;;;;;6.47;2.10;;;;;;;32.90;19.04;99728.47;10340670;28;20733;-61
2022/08/23 14:49:37;;;;;;;5.10;2.25;;;;;;;33.21;18.49;99735.31;10342692;28;20132;-61
2022/08/23 14:54:39;;;;;;;5.78;2.28;;;;;;;33.18;18.34;99728.50;10341333;28;20128;-61
2022/08/23 14:59:41;;;;;;;5.43;2.10;;;;;;;33.19;18.40;99726.56;10339383;28;20045;-61
2022/08/23 15:04:43;;;;;;;7.00;2.10;;;;;;;32.90;18.63;99733.88;10337973;28;20414;-61
2022/08/23 15:09:49;;;;;;;4.65;2.30;;;;;;;32.88;18.56;99736.00;10338178;28;20408;-61
2022/08/23 15:14:51;;;;;;;3.58;1.95;;;;;;;32.57;19.13;99739.16;10338090;28;20056;-61
2022/08/23 15:19:53;;;;;;;6.13;2.35;;;;;;;32.82;18.50;99735.06;10340187;28;20053;-61
2022/08/23 15:24:55;;;;;;;6.43;2.30;;;;;;;33.05;18.45;99726.06;10338283;28;20272;-61
2022/08/23 15:29:57;;;;;;;5.53;2.20;;;;;;;32.62;18.89;99731.13;10336827;28;20053;-61
2022/08/23 15:34:58;;;;;;;11.05;2.38;;;;;;;32.08;18.80;99733.19;10336154;28;20050;-61
2022/08/23 15:40:05;;;;;;;3.85;2.10;;;;;;;31.77;19.11;99728.06;10340462;28;20402;-61
2022/08/23 15:45:07;;;;;;;6.90;2.20;;;;;;;31.76;19.40;99722.91;10341139;28;20049;-61
2022/08/23 15:50:09;;;;;;;4.60;2.00;;;;;;;31.64;19.71;99725.56;10343127;28;20063;-61
2022/08/23 15:55:11;;;;;;;4.90;2.13;;;;;;;31.65;20.04;99726.41;10341263;28;20072;-61
2022/08/23 16:00:14;;;;;;;5.60;2.10;;;;;;;31.24;19.44;99732.63;10342571;28;20056;-61
2022/08/23 16:05:17;;;;;;;6.25;2.28;;;;;;;30.99;19.77;99730.06;10341551;28;20056;-61
2022/08/23 16:10:19;;;;;;;7.72;2.30;;;;;;;30.78;20.35;99730.53;10343715;28;20056;-61
2022/08/23 16:15:21;;;;;;;4.53;2.00;;;;;;;30.62;20.17;99728.41;10341990;28;20057;-61
2022/08/23 16:20:23;;;;;;;9.80;2.50;;;;;;;30.43;20.38;99724.88;10342629;28;20056;-61
2022/08/23 16:25:25;;;;;;;8.73;2.08;;;;;;;30.31;20.93;99724.00;10342185;28;20060;-61
2022/08/23 16:30:27;;;;;;;5.22;2.10;;;;;;;30.42;20.70;99723.22;10342502;28;20056;-61
2022/08/23 16:35:29;;;;;;;5.20;2.22;;;;;;;30.81;20.58;99721.13;10349713;28;20057;-61
2022/08/23 16:40:31;;;;;;;7.05;1.95;;;;;;;31.09;20.65;99727.63;10346615;28;20301;-61
2022/08/23 16:45:33;;;;;;;4.07;2.10;;;;;;;31.30;20.04;99721.72;10344921;28;20046;-61
2022/08/23 16:50:34;;;;;;;6.68;2.40;;;;;;;31.34;19.77;99733.72;10346553;28;20509;-60
2022/08/23 16:55:37;;;;;;;6.38;2.22;;;;;;;31.04;20.22;99732.06;10346398;28;20061;-62
2022/08/23 17:00:39;;;;;;;4.72;2.28;;;;;;;30.90;20.48;99735.97;10349802;28;20413;-61
2022/08/23 17:05:41;;;;;;;5.15;2.10;;;;;;;30.73;20.47;99732.22;10349941;28;20045;-61
2022/08/23 17:10:43;;;;;;;7.38;2.33;;;;;;;30.76;20.87;99734.50;10347462;28;20038;-61
2022/08/23 17:15:45;;;;;;;13.80;2.60;;;;;;;30.60;21.11;99734.03;10348817;28;20057;-61
2022/08/23 17:20:48;;;;;;;5.25;2.20;;;;;;;30.62;21.05;99745.44;10349912;28;20608;-61
2022/08/23 17:25:50;;;;;;;6.45;2.28;;;;;;;30.49;21.09;99737.50;10348465;28;20501;-61
2022/08/23 17:30:53;;;;;;;7.85;2.22;;;;;;;30.32;21.14;99744.50;10348864;28;20048;-61
2022/08/23 17:35:56;;;;;;;5.18;2.13;;;;;;;30.20;21.57;99749.00;10347736;28;20058;-61
2022/08/23 17:40:59;;;;;;;7.15;2.33;;;;;;;30.15;21.99;99751.53;10347590;28;20053;-61
2022/08/23 17:46:00;;;;;;;10.75;2.40;;;;;;;30.01;22.33;99763.47;10346915;28;20057;-61
2022/08/23 17:51:02;;;;;;;6.47;2.60;;;;;;;29.80;23.41;99769.25;10344744;28;20458;-61
2022/08/23 17:56:04;;;;;;;6.07;2.20;;;;;;;29.53;23.53;99771.31;10342277;28;20050;-61
2022/08/23 18:01:12;;;;;;;7.15;2.50;;;;;;;29.28;23.92;99774.94;10343746;28;20052;-61
2022/08/23 18:06:15;;;;;;;7.85;2.55;;;;;;;29.05;24.88;99783.59;10340376;28;20088;-61
2022/08/23 18:11:18;;;;;;;5.97;2.30;;;;;;;28.74;24.89;99784.28;10348133;28;20304;-61
2022/08/23 18:16:19;;;;;;;6.13;2.40;;;;;;;28.43;25.53;99788.72;10346865;28;20054;-61
2022/08/23 18:21:23;;;;;;;4.75;2.20;;;;;;;28.24;25.97;99801.09;10345319;28;20050;-61
2022/08/23 18:31:49;;;;;;;6.40;2.30;;;;;;;27.70;27.02;99812.03;10344410;28;20049;-61
2022/08/23 18:36:52;;;;;;;6.38;2.28;;;;;;;27.57;27.19;99821.91;10343456;28;20083;-61
2022/08/23 18:41:54;;;;;;;7.25;2.60;;;;;;;27.14;27.81;99814.16;10344926;28;20061;-61
2022/08/23 18:46:56;;;;;;;5.72;2.60;;;;;;;26.93;28.29;99827.69;10344636;28;20430;-61
2022/08/23 18:51:58;;;;;;;7.97;2.60;;;;;;;26.72;28.46;99832.28;10344072;28;20053;-61
2022/08/23 18:57:00;;;;;;;5.82;2.50;;;;;;;26.60;28.71;99838.22;10341182;28;20054;-61
2022/08/23 19:02:02;;;;;;;7.05;2.60;;;;;;;26.34;29.21;99848.75;10344018;28;20409;-60
2022/08/23 19:07:04;;;;;;;6.10;2.90;;;;;;;26.18;29.56;99849.00;10343300;28;20132;-60
2022/08/23 19:12:06;;;;;;;6.65;2.65;;;;;;;26.12;29.89;99854.34;10343664;28;20224;-60
2022/08/23 19:17:08;;;;;;;5.75;2.35;;;;;;;25.95;30.34;99861.78;10341203;28;20041;-60
2022/08/23 19:22:11;;;;;;;7.20;2.67;;;;;;;25.77;30.36;99858.72;10344496;28;20045;-60
2022/08/23 19:27:13;;;;;;;8.02;2.55;;;;;;;25.27;30.90;99870.25;10341800;28;20056;-60
2022/08/23 19:32:15;;;;;;;6.80;2.50;;;;;;;25.20;31.17;99879.22;10339825;28;20391;-60
2022/08/23 19:37:18;;;;;;;9.85;2.42;;;;;;;25.12;31.24;99890.03;10339147;28;20607;-61
2022/08/23 19:42:25;;;;;;;5.80;2.50;;;;;;;25.01;31.78;99894.00;10340563;28;20050;-60
2022/08/23 19:47:26;;;;;;;5.20;2.30;;;;;;;24.87;32.21;99890.31;10336002;28;20046;-60
2022/08/23 19:52:29;;;;;;;7.60;2.53;;;;;;;24.76;32.28;99897.97;10340503;28;20127;-59
2022/08/23 19:57:32;;;;;;;7.32;2.60;;;;;;;24.70;32.61;99904.84;10342330;28;20061;-59
2022/08/23 20:02:33;;;;;;;4.63;2.50;;;;;;;24.58;32.69;99905.47;10339998;28;20053;-60
2022/08/23 20:07:36;;;;;;;6.60;2.78;;;;;;;24.47;32.50;99905.91;10339247;28;20045;-59
2022/08/23 20:12:40;;;;;;;5.22;2.50;;;;;;;24.21;32.90;99908.97;10341122;28;20128;-59
2022/08/23 20:17:42;;;;;;;7.03;2.45;;;;;;;24.03;33.46;99916.44;10338827;28;20188;-60
2022/08/23 20:28:06;;;;;;;4.32;2.40;;;;;;;23.84;34.05;99917.72;10340431;28;20042;-60
2022/08/23 20:33:08;;;;;;;7.22;2.60;;;;;;;23.63;34.46;99922.03;10337542;28;20561;-60
2022/08/23 20:38:12;;;;;;;5.80;2.78;;;;;;;23.16;35.53;99930.88;10333035;28;20062;-60
2022/08/23 20:43:34;;;;;;;6.63;2.40;;;;;;;23.23;35.47;99931.00;10342020;28;20042;-60
2022/08/23 20:48:36;;;;;;;7.07;2.47;;;;;;;22.97;36.03;99922.44;10340999;28;20065;-60
2022/08/23 20:53:38;;;;;;;7.28;2.40;;;;;;;22.84;36.09;99930.94;10341498;28;20128;-60
2022/08/23 20:58:39;;;;;;;6.63;2.63;;;;;;;22.52;36.89;99944.31;10341967;28;20050;-60
2022/08/23 21:03:42;;;;;;;8.52;2.72;;;;;;;22.45;36.95;99946.00;10338391;28;20046;-60
2022/08/23 21:08:45;;;;;;;4.50;2.28;;;;;;;22.58;36.97;99948.97;10340285;28;20049;-60
2022/08/23 21:13:48;;;;;;;5.95;2.75;;;;;;;22.56;36.99;99951.81;10337565;28;20057;-60
2022/08/23 21:18:50;;;;;;;4.70;2.63;;;;;;;22.36;37.57;99945.16;10347437;28;20136;-60
2022/08/23 21:23:56;;;;;;;7.05;2.97;;;;;;;22.23;37.64;99952.78;10345327;28;20041;-60
2022/08/23 21:28:58;;;;;;;7.00;3.00;;;;;;;22.27;37.32;99955.97;10347105;28;20129;-60
2022/08/23 21:33:59;;;;;;;9.20;3.00;;;;;;;22.30;37.37;99952.97;10348368;28;20041;-60
2022/08/23 21:39:01;;;;;;;6.47;3.00;;;;;;;22.21;37.53;99954.78;10346274;28;20046;-60
2022/08/23 21:44:07;;;;;;;5.80;2.80;;;;;;;21.89;38.30;99968.88;10346261;28;20054;-60
2022/08/23 21:49:10;;;;;;;5.82;2.60;;;;;;;21.77;38.47;99966.66;10347777;28;20046;-60
2022/08/23 21:54:13;;;;;;;7.28;2.65;;;;;;;21.62;38.42;99962.97;10347063;28;20050;-59
2022/08/23 21:59:17;;;;;;;9.52;2.80;;;;;;;21.50;38.57;99964.22;10348523;28;20058;-60
2022/08/23 22:04:18;;;;;;;5.25;2.78;;;;;;;21.31;38.74;99962.66;10346218;28;20056;-60
2022/08/23 22:09:21;;;;;;;12.38;2.70;;;;;;;21.37;38.56;99961.19;10346791;28;20087;-60
2022/08/23 22:14:32;;;;;;;4.97;2.40;;;;;;;21.04;39.06;99962.81;10345979;28;20053;-59
2022/08/23 22:19:34;;;;;;;6.82;2.92;;;;;;;20.87;39.51;99961.88;10347358;28;20370;-59
2022/08/23 22:24:35;;;;;;;5.38;2.67;;;;;;;20.92;39.97;99959.59;10346552;28;20057;-59
2022/08/23 22:29:38;;;;;;;5.72;2.75;;;;;;;21.04;40.09;99970.81;10346476;28;20052;-59
2022/08/23 22:34:39;;;;;;;5.70;2.72;;;;;;;21.12;39.97;99962.03;10343311;28;20046;-59
2022/08/23 22:39:41;;;;;;;7.38;2.60;;;;;;;21.04;40.37;99966.31;10344682;28;20046;-59
2022/08/23 22:44:43;;;;;;;5.22;2.80;;;;;;;20.84;40.48;99969.34;10345000;28;20280;-59
2022/08/23 22:49:44;;;;;;;5.35;2.80;;;;;;;20.20;41.91;99973.13;10345293;28;20065;-59
2022/08/23 22:54:46;;;;;;;5.25;3.20;;;;;;;20.14;42.17;99981.69;10345299;28;20068;-59
2022/08/23 22:59:48;;;;;;;10.15;2.97;;;;;;;20.24;41.59;99977.13;10346220;28;20120;-59
2022/08/23 23:04:50;;;;;;;5.55;2.70;;;;;;;20.27;41.27;99983.97;10345599;28;20052;-59
2022/08/23 23:09:52;;;;;;;8.23;3.20;;;;;;;20.18;41.58;99990.19;10344190;28;20799;-59
2022/08/23 23:14:54;;;;;;;10.40;2.75;;;;;;;20.10;41.71;99995.41;10343981;28;20165;-59
2022/08/23 23:25:16;;;;;;;6.20;3.13;;;;;;;20.24;41.47;99989.56;10345136;28;20063;-59
2022/08/23 23:30:18;;;;;;;5.68;2.78;;;;;;;20.20;41.90;99991.72;10344062;28;20046;-59
2022/08/23 23:35:21;;;;;;;6.95;2.97;;;;;;;20.15;42.16;99990.50;10344168;28;20053;-59
2022/08/23 23:40:24;;;;;;;6.05;3.00;;;;;;;20.08;42.25;99994.72;10343365;28;20100;-59
2022/08/23 23:45:26;;;;;;;6.35;3.00;;;;;;;19.71;43.20;100008.06;10342368;28;20048;-59
2022/08/23 23:50:28;;;;;;;9.52;2.90;;;;;;;19.41;43.66;100008.34;10344245;28;20386;-60
2022/08/23 23:55:30;;;;;;;8.25;3.05;;;;;;;19.32;44.33;100018.00;10342663;28;20060;-60
